createdAt,value
2018-07-15T00:00:27.413Z,26.37
2018-07-15T00:01:37.101Z,26.43
2018-07-15T00:02:46.573Z,26.32
2018-07-15T00:03:56.258Z,26.35
2018-07-15T00:05:05.659Z,26.32
2018-07-15T00:06:15.072Z,26.32
2018-07-15T00:07:24.229Z,26.35
2018-07-15T00:08:33.638Z,26.4
2018-07-15T00:09:43.068Z,26.33
2018-07-15T00:10:52.746Z,26.37
2018-07-15T00:12:02.419Z,26.39
2018-07-15T00:13:11.586Z,26.32
2018-07-15T00:14:21.252Z,26.33
2018-07-15T00:16:02.543Z,26.37
2018-07-15T00:17:12.220Z,26.35
2018-07-15T00:18:21.639Z,26.32
2018-07-15T00:19:31.072Z,26.29
2018-07-15T00:20:40.751Z,26.33
2018-07-15T00:21:50.662Z,26.33
2018-07-15T00:22:59.813Z,26.33
2018-07-15T00:24:08.959Z,26.32
2018-07-15T00:25:18.116Z,26.32
2018-07-15T00:26:27.279Z,26.29
2018-07-15T00:27:36.944Z,26.32
2018-07-15T00:28:46.106Z,26.36
2018-07-15T00:29:55.779Z,26.35
2018-07-15T00:31:05.197Z,26.33
2018-07-15T00:32:14.604Z,26.33
2018-07-15T00:33:23.770Z,26.33
2018-07-15T00:34:32.920Z,26.37
2018-07-15T00:35:42.333Z,26.3
2018-07-15T00:36:51.491Z,26.33
2018-07-15T00:38:00.399Z,26.37
2018-07-15T00:39:09.801Z,26.36
2018-07-15T00:40:18.962Z,26.3
2018-07-15T00:41:28.630Z,26.35
2018-07-15T00:42:38.036Z,26.29
2018-07-15T00:43:47.707Z,26.32
2018-07-15T00:44:57.129Z,26.32
2018-07-15T00:46:06.553Z,26.37
2018-07-15T00:47:15.967Z,26.4
2018-07-15T00:48:25.382Z,26.32
2018-07-15T00:49:34.898Z,26.37
2018-07-15T00:50:44.064Z,26.35
2018-07-15T00:51:53.729Z,26.32
2018-07-15T00:53:03.425Z,26.3
2018-07-15T00:54:12.839Z,26.33
2018-07-15T00:55:22.541Z,26.35
2018-07-15T00:56:32.043Z,26.33
2018-07-15T00:57:41.217Z,26.37
2018-07-15T00:58:50.383Z,26.33
2018-07-15T00:59:59.295Z,26.29
2018-07-15T01:01:08.707Z,26.33
2018-07-15T01:02:18.125Z,26.36
2018-07-15T01:03:27.270Z,26.36
2018-07-15T01:04:36.675Z,26.35
2018-07-15T01:05:45.820Z,26.33
2018-07-15T01:06:55.501Z,26.33
2018-07-15T01:08:04.907Z,26.32
2018-07-15T01:09:14.575Z,26.3
2018-07-15T01:10:23.981Z,26.29
2018-07-15T01:11:33.394Z,26.28
2018-07-15T01:12:42.803Z,26.3
2018-07-15T01:13:52.225Z,26.37
2018-07-15T01:15:01.632Z,26.33
2018-07-15T01:16:11.290Z,26.33
2018-07-15T01:17:20.189Z,26.37
2018-07-15T01:18:30.184Z,26.32
2018-07-15T01:19:39.404Z,26.35
2018-07-15T01:20:48.831Z,26.35
2018-07-15T01:21:57.739Z,26.3
2018-07-15T01:23:06.387Z,26.37
2018-07-15T01:24:16.051Z,26.36
2018-07-15T01:25:25.209Z,26.37
2018-07-15T01:26:34.404Z,26.3
2018-07-15T01:27:43.822Z,26.33
2018-07-15T01:28:53.486Z,26.37
2018-07-15T01:30:02.906Z,26.35
2018-07-15T01:31:12.063Z,26.33
2018-07-15T01:32:21.224Z,26.33
2018-07-15T01:33:30.889Z,26.3
2018-07-15T01:34:40.108Z,26.33
2018-07-15T01:35:49.790Z,26.29
2018-07-15T01:36:58.683Z,26.28
2018-07-15T01:38:08.087Z,26.35
2018-07-15T01:39:16.974Z,26.39
2018-07-15T01:40:26.387Z,26.36
2018-07-15T01:41:35.624Z,26.32
2018-07-15T01:42:44.798Z,26.3
2018-07-15T01:43:54.467Z,26.37
2018-07-15T01:45:03.901Z,26.32
2018-07-15T01:46:13.569Z,26.29
2018-07-15T01:47:23.231Z,26.35
2018-07-15T01:48:32.387Z,26.35
2018-07-15T01:49:41.280Z,26.32
2018-07-15T01:50:50.694Z,26.33
2018-07-15T01:52:00.356Z,26.37
2018-07-15T01:53:09.784Z,26.36
2018-07-15T01:54:19.195Z,26.37
2018-07-15T01:55:28.609Z,26.33
2018-07-15T01:56:38.051Z,26.32
2018-07-15T01:57:47.004Z,26.33
2018-07-15T01:58:56.677Z,26.28
2018-07-15T02:00:06.363Z,26.3
2018-07-15T02:01:15.765Z,26.36
2018-07-15T02:02:25.160Z,26.33
2018-07-15T02:03:34.577Z,26.37
2018-07-15T02:04:43.988Z,26.32
2018-07-15T02:05:53.650Z,26.3
2018-07-15T02:07:02.309Z,26.32
2018-07-15T02:08:11.204Z,26.36
2018-07-15T02:09:20.611Z,26.29
2018-07-15T02:10:29.758Z,26.37
2018-07-15T02:11:39.179Z,26.33
2018-07-15T02:12:48.854Z,26.32
2018-07-15T02:13:57.497Z,26.3
2018-07-15T02:15:06.661Z,26.35
2018-07-15T02:16:15.811Z,26.35
2018-07-15T02:17:25.236Z,26.3
2018-07-15T02:18:34.383Z,26.37
2018-07-15T02:19:43.786Z,26.39
2018-07-15T02:20:53.187Z,26.32
2018-07-15T02:22:02.593Z,26.35
2018-07-15T02:23:11.231Z,26.28
2018-07-15T02:24:20.632Z,26.35
2018-07-15T02:25:29.542Z,26.35
2018-07-15T02:26:38.954Z,26.33
2018-07-15T02:27:48.896Z,26.28
2018-07-15T02:28:58.572Z,26.3
2018-07-15T02:30:07.999Z,26.33
2018-07-15T02:31:17.714Z,26.35
2018-07-15T02:32:27.626Z,26.36
2018-07-15T02:33:37.047Z,26.3
2018-07-15T02:34:46.990Z,26.29
2018-07-15T02:35:56.665Z,26.36
2018-07-15T02:37:06.090Z,26.36
2018-07-15T02:38:15.236Z,26.33
2018-07-15T02:39:24.440Z,26.33
2018-07-15T02:40:33.857Z,26.29
2018-07-15T02:41:42.792Z,26.33
2018-07-15T02:42:52.216Z,26.33
2018-07-15T02:44:01.910Z,26.32
2018-07-15T02:45:11.089Z,26.35
2018-07-15T02:46:20.761Z,26.33
2018-07-15T02:47:30.190Z,26.3
2018-07-15T02:48:39.633Z,26.32
2018-07-15T02:49:48.785Z,26.32
2018-07-15T02:50:57.708Z,26.3
2018-07-15T02:52:07.133Z,26.36
2018-07-15T02:53:16.807Z,26.36
2018-07-15T02:54:26.236Z,26.3
2018-07-15T02:55:35.920Z,26.32
2018-07-15T02:56:45.588Z,26.32
2018-07-15T02:57:55.514Z,26.32
2018-07-15T02:59:04.936Z,26.32
2018-07-15T03:00:14.599Z,26.28
2018-07-15T03:01:24.527Z,26.35
2018-07-15T03:02:33.721Z,26.35
2018-07-15T03:03:43.381Z,26.3
2018-07-15T03:04:52.798Z,26.3
2018-07-15T03:06:02.481Z,26.3
2018-07-15T03:07:11.902Z,26.36
2018-07-15T03:08:21.308Z,26.3
2018-07-15T03:09:30.738Z,26.32
2018-07-15T03:10:40.140Z,26.3
2018-07-15T03:11:50.222Z,26.33
2018-07-15T03:12:59.939Z,26.29
2018-07-15T03:14:08.836Z,26.35
2018-07-15T03:15:18.506Z,26.32
2018-07-15T03:16:27.921Z,26.33
2018-07-15T03:17:37.611Z,26.37
2018-07-15T03:18:47.034Z,26.29
2018-07-15T03:19:56.758Z,26.32
2018-07-15T03:21:06.188Z,26.3
2018-07-15T03:22:15.615Z,26.35
2018-07-15T03:23:25.275Z,26.23
2018-07-15T03:24:34.684Z,26.28
2018-07-15T03:25:43.855Z,26.25
2018-07-15T03:26:53.280Z,26.29
2018-07-15T03:28:02.706Z,26.33
2018-07-15T03:29:11.857Z,26.3
2018-07-15T03:30:21.020Z,26.33
2018-07-15T03:31:30.454Z,26.33
2018-07-15T03:32:39.857Z,26.26
2018-07-15T03:33:49.546Z,26.35
2018-07-15T03:34:58.954Z,26.33
2018-07-15T03:36:08.633Z,26.33
2018-07-15T03:37:18.053Z,26.29
2018-07-15T03:38:27.731Z,26.32
2018-07-15T03:39:37.133Z,26.36
2018-07-15T03:40:46.800Z,26.28
2018-07-15T03:41:56.217Z,26.29
2018-07-15T03:43:05.892Z,26.3
2018-07-15T03:44:15.057Z,26.35
2018-07-15T03:45:24.017Z,26.32
2018-07-15T03:46:33.166Z,26.3
2018-07-15T03:47:42.368Z,26.28
2018-07-15T03:48:51.525Z,26.3
2018-07-15T03:50:00.943Z,26.23
2018-07-15T03:51:10.095Z,26.3
2018-07-15T03:52:19.497Z,26.23
2018-07-15T03:53:28.895Z,26.29
2018-07-15T03:54:38.563Z,26.28
2018-07-15T03:55:48.229Z,26.33
2018-07-15T03:56:58.153Z,26.33
2018-07-15T03:58:07.561Z,26.3
2018-07-15T03:59:17.234Z,26.26
2018-07-15T04:00:26.414Z,26.3
2018-07-15T04:01:35.590Z,26.29
2018-07-15T04:02:44.998Z,26.32
2018-07-15T04:03:54.400Z,26.3
2018-07-15T04:05:03.814Z,26.29
2018-07-15T04:06:12.972Z,26.25
2018-07-15T04:07:22.379Z,26.32
2018-07-15T04:08:32.191Z,26.33
2018-07-15T04:09:42.204Z,26.29
2018-07-15T04:10:51.869Z,26.25
2018-07-15T04:12:01.804Z,26.29
2018-07-15T04:13:11.457Z,26.28
2018-07-15T04:14:20.600Z,26.29
2018-07-15T04:15:30.280Z,26.28
2018-07-15T04:16:39.959Z,26.3
2018-07-15T04:17:49.629Z,26.3
2018-07-15T04:18:58.521Z,26.3
2018-07-15T04:20:07.925Z,26.25
2018-07-15T04:21:17.591Z,26.29
2018-07-15T04:22:26.990Z,26.33
2018-07-15T04:23:36.394Z,26.29
2018-07-15T04:24:45.289Z,26.3
2018-07-15T04:25:54.455Z,26.3
2018-07-15T04:27:03.616Z,26.3
2018-07-15T04:28:13.169Z,26.29
2018-07-15T04:29:22.960Z,26.29
2018-07-15T04:30:32.117Z,26.33
2018-07-15T04:31:41.251Z,26.32
2018-07-15T04:32:50.406Z,26.39
2018-07-15T04:33:59.589Z,26.3
2018-07-15T04:35:08.759Z,26.3
2018-07-15T04:36:18.174Z,26.36
2018-07-15T04:37:28.102Z,26.29
2018-07-15T04:38:37.499Z,26.32
2018-07-15T04:39:46.905Z,26.28
2018-07-15T04:40:56.352Z,26.28
2018-07-15T04:42:05.768Z,26.23
2018-07-15T04:43:15.175Z,26.29
2018-07-15T04:44:24.582Z,26.28
2018-07-15T04:45:33.740Z,26.33
2018-07-15T04:46:43.155Z,26.26
2018-07-15T04:47:52.308Z,26.25
2018-07-15T04:49:01.727Z,26.21
2018-07-15T04:50:11.409Z,26.28
2018-07-15T04:51:20.823Z,26.33
2018-07-15T04:52:30.239Z,26.3
2018-07-15T04:53:39.390Z,26.35
2018-07-15T04:54:48.804Z,26.29
2018-07-15T04:55:58.217Z,26.26
2018-07-15T04:57:07.875Z,26.29
2018-07-15T04:58:17.291Z,26.29
2018-07-15T04:59:26.954Z,26.32
2018-07-15T05:00:36.608Z,26.33
2018-07-15T05:01:45.760Z,26.29
2018-07-15T05:02:54.982Z,26.29
2018-07-15T05:04:04.206Z,26.3
2018-07-15T05:05:13.649Z,26.29
2018-07-15T05:06:23.575Z,26.32
2018-07-15T05:07:32.724Z,26.26
2018-07-15T05:08:41.875Z,26.28
2018-07-15T05:09:51.299Z,26.26
2018-07-15T05:11:00.464Z,26.25
2018-07-15T05:12:10.121Z,26.33
2018-07-15T05:13:19.267Z,26.32
2018-07-15T05:14:28.951Z,26.29
2018-07-15T05:15:37.581Z,26.3
2018-07-15T05:16:47.002Z,26.33
2018-07-15T05:17:56.417Z,26.23
2018-07-15T05:19:06.364Z,26.3
2018-07-15T05:20:16.021Z,26.26
2018-07-15T05:21:25.703Z,26.3
2018-07-15T05:22:35.372Z,26.35
2018-07-15T05:23:44.772Z,26.3
2018-07-15T05:24:54.313Z,26.3
2018-07-15T05:26:04.446Z,26.3
2018-07-15T05:27:14.122Z,26.3
2018-07-15T05:28:24.070Z,26.28
2018-07-15T05:29:33.734Z,26.3
2018-07-15T05:30:42.887Z,26.26
2018-07-15T05:31:52.560Z,26.33
2018-07-15T05:33:01.772Z,26.36
2018-07-15T05:34:10.942Z,26.25
2018-07-15T05:35:20.614Z,26.32
2018-07-15T05:36:29.780Z,26.3
2018-07-15T05:37:38.673Z,26.3
2018-07-15T05:38:48.332Z,26.33
2018-07-15T05:39:57.480Z,26.26
2018-07-15T05:41:06.905Z,26.33
2018-07-15T05:42:16.319Z,26.29
2018-07-15T05:43:25.741Z,26.3
2018-07-15T05:44:35.192Z,26.35
2018-07-15T05:45:44.606Z,26.32
2018-07-15T05:46:54.015Z,26.3
2018-07-15T05:48:03.690Z,26.35
2018-07-15T05:49:12.334Z,26.33
2018-07-15T05:50:21.504Z,26.25
2018-07-15T05:51:30.904Z,26.25
2018-07-15T05:52:40.318Z,26.29
2018-07-15T05:53:49.493Z,26.25
2018-07-15T05:54:59.164Z,26.32
2018-07-15T05:56:08.826Z,26.25
2018-07-15T05:57:18.240Z,26.32
2018-07-15T05:58:27.655Z,26.32
2018-07-15T05:59:36.807Z,26.33
2018-07-15T06:00:46.206Z,26.3
2018-07-15T06:01:55.351Z,26.33
2018-07-15T06:03:04.780Z,26.35
2018-07-15T06:04:13.956Z,26.3
2018-07-15T06:05:23.379Z,26.33
2018-07-15T06:06:32.781Z,26.3
2018-07-15T06:07:42.192Z,26.29
2018-07-15T06:08:51.100Z,26.39
2018-07-15T06:09:59.991Z,26.32
2018-07-15T06:11:09.135Z,26.33
2018-07-15T06:12:19.052Z,26.36
2018-07-15T06:13:28.988Z,26.32
2018-07-15T06:14:38.130Z,26.3
2018-07-15T06:15:47.864Z,26.32
2018-07-15T06:16:57.322Z,26.28
2018-07-15T06:18:07.460Z,26.35
2018-07-15T06:19:17.149Z,26.32
2018-07-15T06:20:26.972Z,26.32
2018-07-15T06:21:36.370Z,26.29
2018-07-15T06:22:46.021Z,26.37
2018-07-15T06:23:55.383Z,26.3
2018-07-15T06:25:04.818Z,26.33
2018-07-15T06:26:14.510Z,26.32
2018-07-15T06:27:23.665Z,26.3
2018-07-15T06:28:32.821Z,26.3
2018-07-15T06:29:41.970Z,26.33
2018-07-15T06:30:50.872Z,26.36
2018-07-15T06:32:00.805Z,26.33
2018-07-15T06:33:10.752Z,26.36
2018-07-15T06:34:19.927Z,26.29
2018-07-15T06:35:29.620Z,26.39
2018-07-15T06:36:39.297Z,26.39
2018-07-15T06:37:48.706Z,26.29
2018-07-15T06:38:58.115Z,26.36
2018-07-15T06:40:07.286Z,26.36
2018-07-15T06:41:16.447Z,26.26
2018-07-15T06:42:25.860Z,26.35
2018-07-15T06:43:35.340Z,26.36
2018-07-15T06:44:44.245Z,26.3
2018-07-15T06:45:53.660Z,26.35
2018-07-15T06:47:03.076Z,26.36
2018-07-15T06:48:12.743Z,26.37
2018-07-15T06:49:22.336Z,26.36
2018-07-15T06:50:31.858Z,26.32
2018-07-15T06:51:40.745Z,26.33
2018-07-15T06:52:49.663Z,26.33
2018-07-15T06:53:59.211Z,26.32
2018-07-15T06:55:08.742Z,26.33
2018-07-15T06:56:18.461Z,26.3
2018-07-15T06:57:27.626Z,26.33
2018-07-15T06:58:37.024Z,26.4
2018-07-15T06:59:46.702Z,26.35
2018-07-15T07:00:56.134Z,26.37
2018-07-15T07:02:05.103Z,26.36
2018-07-15T07:03:14.519Z,26.4
2018-07-15T07:04:23.421Z,26.33
2018-07-15T07:05:33.097Z,26.35
2018-07-15T07:06:42.046Z,26.36
2018-07-15T07:07:51.451Z,26.37
2018-07-15T07:09:00.870Z,26.39
2018-07-15T07:10:10.282Z,26.37
2018-07-15T07:11:20.199Z,26.32
2018-07-15T07:12:29.911Z,26.36
2018-07-15T07:13:40.027Z,26.33
2018-07-15T07:14:49.427Z,26.35
2018-07-15T07:15:58.841Z,26.36
2018-07-15T07:17:07.732Z,26.39
2018-07-15T07:18:16.919Z,26.36
2018-07-15T07:19:26.318Z,26.39
2018-07-15T07:20:35.915Z,26.35
2018-07-15T07:21:45.698Z,26.39
2018-07-15T07:22:54.602Z,26.37
2018-07-15T07:24:03.495Z,26.37
2018-07-15T07:25:12.401Z,26.4
2018-07-15T07:26:21.300Z,26.37
2018-07-15T07:27:30.984Z,26.36
2018-07-15T07:28:40.433Z,26.37
2018-07-15T07:29:49.657Z,26.37
2018-07-15T07:30:58.541Z,26.4
2018-07-15T07:32:07.945Z,26.36
2018-07-15T07:33:17.091Z,26.43
2018-07-15T07:34:26.783Z,26.36
2018-07-15T07:35:35.702Z,26.35
2018-07-15T07:36:45.130Z,26.39
2018-07-15T07:37:54.807Z,26.37
2018-07-15T07:39:04.231Z,26.36
2018-07-15T07:40:13.919Z,26.37
2018-07-15T07:41:23.682Z,26.33
2018-07-15T07:42:33.444Z,26.37
2018-07-15T07:43:43.111Z,26.43
2018-07-15T07:44:52.534Z,26.39
2018-07-15T07:46:01.703Z,26.36
2018-07-15T07:47:11.131Z,26.39
2018-07-15T07:48:20.799Z,26.4
2018-07-15T07:49:30.222Z,26.43
2018-07-15T07:50:39.368Z,26.43
2018-07-15T07:51:49.033Z,26.35
2018-07-15T07:52:58.441Z,26.4
2018-07-15T07:54:07.591Z,26.36
2018-07-15T07:55:17.257Z,26.44
2018-07-15T07:56:26.928Z,26.39
2018-07-15T07:57:36.336Z,26.39
2018-07-15T07:58:45.756Z,26.35
2018-07-15T07:59:54.644Z,26.39
2018-07-15T08:01:04.049Z,26.44
2018-07-15T08:02:13.470Z,26.39
2018-07-15T08:03:22.878Z,26.39
2018-07-15T08:04:32.552Z,26.36
2018-07-15T08:05:41.728Z,26.4
2018-07-15T08:06:50.874Z,26.37
2018-07-15T08:08:00.306Z,26.44
2018-07-15T08:09:09.968Z,26.4
2018-07-15T08:10:19.381Z,26.35
2018-07-15T08:11:29.048Z,26.4
2018-07-15T08:12:38.702Z,26.4
2018-07-15T08:13:48.109Z,26.44
2018-07-15T08:14:57.508Z,26.36
2018-07-15T08:16:07.457Z,26.39
2018-07-15T08:17:17.144Z,26.37
2018-07-15T08:18:26.047Z,26.39
2018-07-15T08:19:35.455Z,26.39
2018-07-15T08:20:44.629Z,26.37
2018-07-15T08:21:53.523Z,26.43
2018-07-15T08:23:02.415Z,26.37
2018-07-15T08:24:11.577Z,26.39
2018-07-15T08:25:21.249Z,26.43
2018-07-15T08:26:30.399Z,26.43
2018-07-15T08:27:40.062Z,26.45
2018-07-15T08:28:49.227Z,26.37
2018-07-15T08:29:58.896Z,26.45
2018-07-15T08:31:08.570Z,26.43
2018-07-15T08:32:17.741Z,26.43
2018-07-15T08:33:27.416Z,26.44
2018-07-15T08:34:36.580Z,26.39
2018-07-15T08:35:45.988Z,26.35
2018-07-15T08:36:55.159Z,26.43
2018-07-15T08:38:04.304Z,26.36
2018-07-15T08:39:13.965Z,26.44
2018-07-15T08:40:23.634Z,26.43
2018-07-15T08:41:33.298Z,26.43
2018-07-15T08:42:42.953Z,26.43
2018-07-15T08:43:52.117Z,26.43
2018-07-15T08:45:02.046Z,26.47
2018-07-15T08:46:11.549Z,26.44
2018-07-15T08:47:21.013Z,26.43
2018-07-15T08:48:30.681Z,26.47
2018-07-15T08:49:40.621Z,26.44
2018-07-15T08:50:50.025Z,26.47
2018-07-15T08:51:59.427Z,26.43
2018-07-15T08:53:09.343Z,26.44
2018-07-15T08:54:18.487Z,26.43
2018-07-15T08:55:28.331Z,26.47
2018-07-15T08:56:37.479Z,26.48
2018-07-15T08:57:46.632Z,26.47
2018-07-15T08:58:56.057Z,26.44
2018-07-15T09:00:05.468Z,26.43
2018-07-15T09:01:14.895Z,26.45
2018-07-15T09:02:24.299Z,26.47
2018-07-15T09:03:34.117Z,26.44
2018-07-15T09:04:43.786Z,26.45
2018-07-15T09:05:53.197Z,26.43
2018-07-15T09:07:02.605Z,26.4
2018-07-15T09:08:11.499Z,26.44
2018-07-15T09:09:21.035Z,26.48
2018-07-15T09:10:30.445Z,26.43
2018-07-15T09:11:39.619Z,26.37
2018-07-15T09:12:49.151Z,26.44
2018-07-15T09:13:58.887Z,26.43
2018-07-15T09:15:08.590Z,26.45
2018-07-15T09:16:18.037Z,26.45
2018-07-15T09:17:27.202Z,26.44
2018-07-15T09:18:36.605Z,26.47
2018-07-15T09:19:46.006Z,26.37
2018-07-15T09:20:55.170Z,26.47
2018-07-15T09:22:04.596Z,26.4
2018-07-15T09:23:14.519Z,26.43
2018-07-15T09:24:23.927Z,26.44
2018-07-15T09:25:32.838Z,26.44
2018-07-15T09:26:41.987Z,26.43
2018-07-15T09:27:51.821Z,26.44
2018-07-15T09:29:01.433Z,26.43
2018-07-15T09:30:10.860Z,26.48
2018-07-15T09:31:20.021Z,26.44
2018-07-15T09:32:29.172Z,26.44
2018-07-15T09:33:38.848Z,26.44
2018-07-15T09:34:48.250Z,26.39
2018-07-15T09:35:57.134Z,26.4
2018-07-15T09:37:06.823Z,26.48
2018-07-15T09:38:16.753Z,26.43
2018-07-15T09:39:26.151Z,26.47
2018-07-15T09:40:35.552Z,26.47
2018-07-15T09:41:44.955Z,26.44
2018-07-15T09:42:54.362Z,26.44
2018-07-15T09:44:03.779Z,26.43
2018-07-15T09:45:13.192Z,26.48
2018-07-15T09:46:22.348Z,26.44
2018-07-15T09:47:31.517Z,26.47
2018-07-15T09:48:41.441Z,26.44
2018-07-15T09:49:51.378Z,26.43
2018-07-15T09:51:00.799Z,26.44
2018-07-15T09:52:10.461Z,26.44
2018-07-15T09:53:19.882Z,26.47
2018-07-15T09:54:29.040Z,26.45
2018-07-15T09:55:38.710Z,26.47
2018-07-15T09:56:47.867Z,26.47
2018-07-15T09:57:57.537Z,26.45
2018-07-15T09:59:07.468Z,26.47
2018-07-15T10:00:17.143Z,26.44
2018-07-15T10:01:26.798Z,26.43
2018-07-15T10:02:35.690Z,26.44
2018-07-15T10:03:44.844Z,26.43
2018-07-15T10:04:53.751Z,26.39
2018-07-15T10:06:02.920Z,26.43
2018-07-15T10:07:12.333Z,26.47
2018-07-15T10:08:21.749Z,26.47
2018-07-15T10:09:30.926Z,26.44
2018-07-15T10:10:40.570Z,26.48
2018-07-15T10:11:50.502Z,26.48
2018-07-15T10:12:59.653Z,26.47
2018-07-15T10:14:09.605Z,26.44
2018-07-15T10:15:19.278Z,26.43
2018-07-15T10:16:28.934Z,26.45
2018-07-15T10:17:38.854Z,26.43
2018-07-15T10:18:47.493Z,26.44
2018-07-15T10:19:56.988Z,26.45
2018-07-15T10:21:06.658Z,26.48
2018-07-15T10:22:16.064Z,26.47
2018-07-15T10:23:25.216Z,26.4
2018-07-15T10:24:34.872Z,26.47
2018-07-15T10:25:44.036Z,26.43
2018-07-15T10:26:53.725Z,26.43
2018-07-15T10:28:03.131Z,26.47
2018-07-15T10:29:12.787Z,26.48
2018-07-15T10:30:22.213Z,26.4
2018-07-15T10:31:31.870Z,26.4
2018-07-15T10:32:41.571Z,26.47
2018-07-15T10:33:50.724Z,26.44
2018-07-15T10:34:59.629Z,26.48
2018-07-15T10:36:08.520Z,26.5
2018-07-15T10:37:18.190Z,26.47
2018-07-15T10:38:27.792Z,26.45
2018-07-15T10:39:36.679Z,26.44
2018-07-15T10:40:45.586Z,26.5
2018-07-15T10:41:54.746Z,26.48
2018-07-15T10:43:04.427Z,26.47
2018-07-15T10:44:13.831Z,26.48
2018-07-15T10:45:23.766Z,26.43
2018-07-15T10:46:33.685Z,26.44
2018-07-15T10:47:42.844Z,26.47
2018-07-15T10:48:52.251Z,26.48
2018-07-15T10:50:01.403Z,26.47
2018-07-15T10:51:10.570Z,26.48
2018-07-15T10:52:19.466Z,26.48
2018-07-15T10:53:28.623Z,26.43
2018-07-15T10:54:37.782Z,26.47
2018-07-15T10:55:46.679Z,26.44
2018-07-15T10:56:56.095Z,26.5
2018-07-15T10:58:04.990Z,26.48
2018-07-15T10:59:14.653Z,26.43
2018-07-15T11:00:24.095Z,26.47
2018-07-15T11:01:33.236Z,26.43
2018-07-15T11:02:42.402Z,26.47
2018-07-15T11:03:51.816Z,26.48
2018-07-15T11:05:01.224Z,26.47
2018-07-15T11:06:10.918Z,26.45
2018-07-15T11:07:20.699Z,26.48
2018-07-15T11:08:29.843Z,26.43
2018-07-15T11:09:39.256Z,26.44
2018-07-15T11:10:48.927Z,26.45
2018-07-15T11:11:58.080Z,26.4
2018-07-15T11:13:07.774Z,26.47
2018-07-15T11:14:17.450Z,26.5
2018-07-15T11:15:27.178Z,26.48
2018-07-15T11:16:37.257Z,26.47
2018-07-15T11:17:47.407Z,26.48
2018-07-15T11:18:56.844Z,26.47
2018-07-15T11:20:06.522Z,26.45
2018-07-15T11:21:15.966Z,26.48
2018-07-15T11:22:25.746Z,26.45
2018-07-15T11:23:35.987Z,26.43
2018-07-15T11:24:45.404Z,26.47
2018-07-15T11:25:55.085Z,26.47
2018-07-15T11:27:04.594Z,26.48
2018-07-15T11:28:14.004Z,26.4
2018-07-15T11:29:23.428Z,26.45
2018-07-15T11:30:33.357Z,26.48
2018-07-15T11:31:42.514Z,26.48
2018-07-15T11:32:52.211Z,26.47
2018-07-15T11:34:00.857Z,26.45
2018-07-15T11:35:10.288Z,26.43
2018-07-15T11:36:19.947Z,26.44
2018-07-15T11:37:28.859Z,26.48
2018-07-15T11:38:38.274Z,26.44
2018-07-15T11:39:47.430Z,26.45
2018-07-15T11:40:56.372Z,26.44
2018-07-15T11:42:05.804Z,26.44
2018-07-15T11:43:14.718Z,26.45
2018-07-15T11:44:23.638Z,26.45
2018-07-15T11:45:32.546Z,26.51
2018-07-15T11:46:41.696Z,26.44
2018-07-15T11:47:50.866Z,26.52
2018-07-15T11:49:00.023Z,26.45
2018-07-15T11:50:09.188Z,26.44
2018-07-15T11:51:18.083Z,26.47
2018-07-15T11:52:27.494Z,26.43
2018-07-15T11:53:36.659Z,26.44
2018-07-15T11:54:46.047Z,26.4
2018-07-15T11:55:55.747Z,26.44
2018-07-15T11:57:04.914Z,26.48
2018-07-15T11:58:14.344Z,26.45
2018-07-15T11:59:23.757Z,26.47
2018-07-15T12:00:32.664Z,26.45
2018-07-15T12:01:42.528Z,26.45
2018-07-15T12:02:52.244Z,26.47
2018-07-15T12:04:01.139Z,26.44
2018-07-15T12:05:10.806Z,26.47
2018-07-15T12:06:20.206Z,26.44
2018-07-15T12:07:29.603Z,26.5
2018-07-15T12:08:39.033Z,26.44
2018-07-15T12:09:47.925Z,26.47
2018-07-15T12:10:57.390Z,26.47
2018-07-15T12:12:07.242Z,26.51
2018-07-15T12:13:16.928Z,26.45
2018-07-15T12:14:26.351Z,26.5
2018-07-15T12:15:35.771Z,26.43
2018-07-15T12:16:45.174Z,26.51
2018-07-15T12:17:54.836Z,26.45
2018-07-15T12:19:04.247Z,26.47
2018-07-15T12:20:13.925Z,26.5
2018-07-15T12:21:23.329Z,26.45
2018-07-15T12:22:32.254Z,26.47
2018-07-15T12:23:41.678Z,26.45
2018-07-15T12:24:51.610Z,26.48
2018-07-15T12:26:01.030Z,26.51
2018-07-15T12:27:10.184Z,26.52
2018-07-15T12:28:20.016Z,26.54
2018-07-15T12:29:29.994Z,26.48
2018-07-15T12:30:39.660Z,26.51
2018-07-15T12:31:49.064Z,26.51
2018-07-15T12:32:58.986Z,26.5
2018-07-15T12:34:08.674Z,26.52
2018-07-15T12:35:17.832Z,26.54
2018-07-15T12:36:26.745Z,26.51
2018-07-15T12:37:36.431Z,26.48
2018-07-15T12:38:46.119Z,26.54
2018-07-15T12:39:55.773Z,26.54
2018-07-15T12:41:05.212Z,26.54
2018-07-15T12:42:14.375Z,26.55
2018-07-15T12:43:23.601Z,26.48
2018-07-15T12:44:32.559Z,26.54
2018-07-15T12:45:41.465Z,26.54
2018-07-15T12:46:50.654Z,26.51
2018-07-15T12:47:59.804Z,26.52
2018-07-15T12:49:09.003Z,26.54
2018-07-15T12:50:18.703Z,26.54
2018-07-15T12:51:28.131Z,26.54
2018-07-15T12:52:37.568Z,26.58
2018-07-15T12:53:47.247Z,26.54
2018-07-15T12:54:56.677Z,26.63
2018-07-15T12:56:06.102Z,26.48
2018-07-15T12:57:15.526Z,26.57
2018-07-15T12:58:24.693Z,26.54
2018-07-15T12:59:34.103Z,26.51
2018-07-15T13:00:43.009Z,26.5
2018-07-15T13:01:52.165Z,26.58
2018-07-15T13:03:01.324Z,26.6
2018-07-15T13:04:10.513Z,26.57
2018-07-15T13:05:19.677Z,26.58
2018-07-15T13:06:28.344Z,26.51
2018-07-15T13:07:37.821Z,26.6
2018-07-15T13:08:47.505Z,26.51
2018-07-15T13:09:56.926Z,26.5
2018-07-15T13:11:06.090Z,26.63
2018-07-15T13:12:15.281Z,26.6
2018-07-15T13:13:24.486Z,26.57
2018-07-15T13:14:33.580Z,26.55
2018-07-15T13:15:43.006Z,26.65
2018-07-15T13:16:52.675Z,26.57
2018-07-15T13:18:02.157Z,26.52
2018-07-15T13:19:10.811Z,26.58
2018-07-15T13:20:20.238Z,26.6
2018-07-15T13:21:29.926Z,26.66
2018-07-15T13:22:39.099Z,26.66
2018-07-15T13:23:48.526Z,26.6
2018-07-15T13:24:58.205Z,26.65
2018-07-15T13:26:07.362Z,26.57
2018-07-15T13:27:16.775Z,26.62
2018-07-15T13:28:26.185Z,26.62
2018-07-15T13:29:35.632Z,26.66
2018-07-15T13:30:45.135Z,26.65
2018-07-15T13:31:55.055Z,26.65
2018-07-15T13:33:04.496Z,26.63
2018-07-15T13:34:13.964Z,26.62
2018-07-15T13:35:23.106Z,26.67
2018-07-15T13:36:32.521Z,26.66
2018-07-15T13:37:42.472Z,26.6
2018-07-15T13:38:51.888Z,26.65
2018-07-15T13:40:01.049Z,26.62
2018-07-15T13:41:10.711Z,26.63
2018-07-15T13:42:20.137Z,26.66
2018-07-15T13:43:29.812Z,26.77
2018-07-15T13:44:39.469Z,26.75
2018-07-15T13:45:48.877Z,26.69
2018-07-15T13:46:58.282Z,26.7
2018-07-15T13:48:07.550Z,26.75
2018-07-15T13:49:16.707Z,26.76
2018-07-15T13:50:25.870Z,26.81
2018-07-15T13:51:35.090Z,26.77
2018-07-15T13:52:44.011Z,26.76
2018-07-15T13:53:53.678Z,26.82
2018-07-15T13:55:02.591Z,26.77
2018-07-15T13:56:12.020Z,26.8
2018-07-15T13:57:21.690Z,26.82
2018-07-15T13:58:31.152Z,26.76
2018-07-15T13:59:40.614Z,26.73
2018-07-15T14:00:50.029Z,26.75
2018-07-15T14:01:59.699Z,26.81
2018-07-15T14:03:09.136Z,26.73
2018-07-15T14:04:19.025Z,26.75
2018-07-15T14:05:27.927Z,26.75
2018-07-15T14:06:37.339Z,26.82
2018-07-15T14:07:46.517Z,26.77
2018-07-15T14:08:55.719Z,26.73
2018-07-15T14:10:05.170Z,26.88
2018-07-15T14:11:14.640Z,26.88
2018-07-15T14:12:23.815Z,26.89
2018-07-15T14:13:33.761Z,26.88
2018-07-15T14:14:43.435Z,26.87
2018-07-15T14:15:52.336Z,26.82
2018-07-15T14:17:01.492Z,26.82
2018-07-15T14:18:10.915Z,26.85
2018-07-15T14:19:20.331Z,26.82
2018-07-15T14:20:29.746Z,26.89
2018-07-15T14:21:38.645Z,26.87
2018-07-15T14:22:47.805Z,26.87
2018-07-15T14:23:57.749Z,26.82
2018-07-15T14:25:07.419Z,26.82
2018-07-15T14:26:17.103Z,26.85
2018-07-15T14:27:26.520Z,26.85
2018-07-15T14:28:35.937Z,26.85
2018-07-15T14:29:45.109Z,26.85
2018-07-15T14:30:55.041Z,26.89
2018-07-15T14:32:04.982Z,26.82
2018-07-15T14:33:14.405Z,26.91
2018-07-15T14:34:23.834Z,26.84
2018-07-15T14:35:33.008Z,26.91
2018-07-15T14:36:42.694Z,26.92
2018-07-15T14:37:51.999Z,26.87
2018-07-15T14:39:01.740Z,26.91
2018-07-15T14:40:11.464Z,26.92
2018-07-15T14:41:20.874Z,26.92
2018-07-15T14:42:30.580Z,26.92
2018-07-15T14:43:39.980Z,26.97
2018-07-15T14:44:49.143Z,26.92
2018-07-15T14:45:58.851Z,26.95
2018-07-15T14:47:08.266Z,26.95
2018-07-15T14:48:17.566Z,26.92
2018-07-15T14:49:27.285Z,26.99
2018-07-15T14:50:36.987Z,26.94
2018-07-15T14:51:46.418Z,26.99
2018-07-15T14:52:55.851Z,26.95
2018-07-15T14:54:05.254Z,26.95
2018-07-15T14:55:15.210Z,26.95
2018-07-15T14:56:24.907Z,26.97
2018-07-15T14:57:34.326Z,26.99